sensor_id;sensor_type;location;lat;lon;timestamp;P1;durP1;ratioP1;P2;durP2;ratioP2
38312;SDS011;24114;52.260;6.714;2023-08-01T00:01:23;2.83;;;2.27;;
38312;SDS011;24114;52.260;6.714;2023-08-01T00:14:09;2.92;;;2.35;;
38312;SDS011;24114;52.260;6.714;2023-08-01T00:16:47;4.30;;;2.80;;
38312;SDS011;24114;52.260;6.714;2023-08-01T00:19:56;4.32;;;2.72;;
38312;SDS011;24114;52.260;6.714;2023-08-01T00:22:47;3.42;;;2.95;;
38312;SDS011;24114;52.260;6.714;2023-08-01T00:25:23;3.80;;;3.00;;
38312;SDS011;24114;52.260;6.714;2023-08-01T00:31:59;3.80;;;2.85;;
38312;SDS011;24114;52.260;6.714;2023-08-01T00:42:50;3.88;;;3.08;;
38312;SDS011;24114;52.260;6.714;2023-08-01T00:45:39;4.43;;;3.10;;
38312;SDS011;24114;52.260;6.714;2023-08-01T00:48:27;5.68;;;3.80;;
38312;SDS011;24114;52.260;6.714;2023-08-01T00:50:56;5.38;;;4.13;;
38312;SDS011;24114;52.260;6.714;2023-08-01T00:53:28;5.20;;;4.50;;
38312;SDS011;24114;52.260;6.714;2023-08-01T00:55:57;6.53;;;4.45;;
38312;SDS011;24114;52.260;6.714;2023-08-01T00:58:44;6.80;;;4.47;;
38312;SDS011;24114;52.260;6.714;2023-08-01T01:01:16;6.60;;;4.40;;
38312;SDS011;24114;52.260;6.714;2023-08-01T01:03:45;6.53;;;4.13;;
38312;SDS011;24114;52.260;6.714;2023-08-01T01:06:14;5.40;;;4.15;;
38312;SDS011;24114;52.260;6.714;2023-08-01T01:08:49;3.67;;;3.20;;
38312;SDS011;24114;52.260;6.714;2023-08-01T01:11:17;4.32;;;3.58;;
38312;SDS011;24114;52.260;6.714;2023-08-01T01:13:48;4.10;;;3.60;;
38312;SDS011;24114;52.260;6.714;2023-08-01T01:16:19;4.47;;;3.40;;
38312;SDS011;24114;52.260;6.714;2023-08-01T01:18:48;4.93;;;3.55;;
38312;SDS011;24114;52.260;6.714;2023-08-01T01:21:19;5.22;;;4.07;;
38312;SDS011;24114;52.260;6.714;2023-08-01T01:23:47;4.88;;;4.13;;
38312;SDS011;24114;52.260;6.714;2023-08-01T01:26:16;5.25;;;4.03;;
38312;SDS011;24114;52.260;6.714;2023-08-01T01:28:47;6.30;;;4.40;;
38312;SDS011;24114;52.260;6.714;2023-08-01T01:31:16;6.23;;;5.00;;
38312;SDS011;24114;52.260;6.714;2023-08-01T01:33:44;8.53;;;5.87;;
38312;SDS011;24114;52.260;6.714;2023-08-01T01:36:12;7.95;;;5.80;;
38312;SDS011;24114;52.260;6.714;2023-08-01T01:38:43;6.80;;;5.50;;
38312;SDS011;24114;52.260;6.714;2023-08-01T01:41:11;8.20;;;6.03;;
38312;SDS011;24114;52.260;6.714;2023-08-01T01:43:39;7.97;;;5.70;;
38312;SDS011;24114;52.260;6.714;2023-08-01T01:46:08;7.18;;;6.25;;
38312;SDS011;24114;52.260;6.714;2023-08-01T01:48:36;7.27;;;6.13;;
38312;SDS011;24114;52.260;6.714;2023-08-01T01:51:04;8.30;;;6.30;;
38312;SDS011;24114;52.260;6.714;2023-08-01T01:53:32;7.57;;;6.32;;
38312;SDS011;24114;52.260;6.714;2023-08-01T01:56:01;8.95;;;6.50;;
38312;SDS011;24114;52.260;6.714;2023-08-01T01:58:29;7.57;;;5.70;;
38312;SDS011;24114;52.260;6.714;2023-08-01T02:00:57;7.82;;;6.35;;
38312;SDS011;24114;52.260;6.714;2023-08-01T02:03:25;7.20;;;5.47;;
38312;SDS011;24114;52.260;6.714;2023-08-01T02:05:53;8.05;;;5.72;;
38312;SDS011;24114;52.260;6.714;2023-08-01T02:08:21;7.40;;;5.38;;
38312;SDS011;24114;52.260;6.714;2023-08-01T02:10:49;5.85;;;4.57;;
38312;SDS011;24114;52.260;6.714;2023-08-01T02:13:20;5.82;;;4.40;;
38312;SDS011;24114;52.260;6.714;2023-08-01T02:15:48;6.25;;;4.68;;
38312;SDS011;24114;52.260;6.714;2023-08-01T02:18:15;7.07;;;4.25;;
38312;SDS011;24114;52.260;6.714;2023-08-01T02:20:43;6.13;;;4.10;;
38312;SDS011;24114;52.260;6.714;2023-08-01T02:23:11;5.07;;;4.13;;
38312;SDS011;24114;52.260;6.714;2023-08-01T02:25:42;6.70;;;4.38;;
38312;SDS011;24114;52.260;6.714;2023-08-01T02:28:10;5.97;;;3.80;;
38312;SDS011;24114;52.260;6.714;2023-08-01T02:30:40;5.82;;;3.67;;
38312;SDS011;24114;52.260;6.714;2023-08-01T02:33:08;6.47;;;4.10;;
38312;SDS011;24114;52.260;6.714;2023-08-01T02:35:36;5.45;;;3.95;;
38312;SDS011;24114;52.260;6.714;2023-08-01T02:38:04;5.88;;;3.90;;
38312;SDS011;24114;52.260;6.714;2023-08-01T02:40:32;5.22;;;3.78;;
38312;SDS011;24114;52.260;6.714;2023-08-01T02:43:00;6.63;;;4.00;;
38312;SDS011;24114;52.260;6.714;2023-08-01T02:45:28;6.78;;;3.92;;
38312;SDS011;24114;52.260;6.714;2023-08-01T02:47:57;5.57;;;4.15;;
38312;SDS011;24114;52.260;6.714;2023-08-01T02:50:25;6.03;;;4.10;;
38312;SDS011;24114;52.260;6.714;2023-08-01T02:52:53;5.38;;;4.10;;
38312;SDS011;24114;52.260;6.714;2023-08-01T02:55:21;5.28;;;3.50;;
38312;SDS011;24114;52.260;6.714;2023-08-01T02:57:49;5.75;;;3.50;;
38312;SDS011;24114;52.260;6.714;2023-08-01T03:00:17;6.28;;;3.67;;
38312;SDS011;24114;52.260;6.714;2023-08-01T03:02:45;6.32;;;3.17;;
38312;SDS011;24114;52.260;6.714;2023-08-01T03:05:15;6.35;;;3.55;;
38312;SDS011;24114;52.260;6.714;2023-08-01T03:07:43;6.30;;;3.72;;
38312;SDS011;24114;52.260;6.714;2023-08-01T03:10:11;6.93;;;3.13;;
38312;SDS011;24114;52.260;6.714;2023-08-01T03:12:59;4.23;;;3.07;;
38312;SDS011;24114;52.260;6.714;2023-08-01T03:15:28;5.45;;;3.47;;
38312;SDS011;24114;52.260;6.714;2023-08-01T03:17:56;5.30;;;3.00;;
38312;SDS011;24114;52.260;6.714;2023-08-01T03:20:26;6.40;;;3.10;;
38312;SDS011;24114;52.260;6.714;2023-08-01T03:22:53;7.25;;;3.50;;
38312;SDS011;24114;52.260;6.714;2023-08-01T03:25:21;4.70;;;2.97;;
38312;SDS011;24114;52.260;6.714;2023-08-01T03:27:50;6.47;;;3.20;;
38312;SDS011;24114;52.260;6.714;2023-08-01T03:30:18;5.50;;;2.97;;
38312;SDS011;24114;52.260;6.714;2023-08-01T03:32:47;4.53;;;3.07;;
38312;SDS011;24114;52.260;6.714;2023-08-01T03:35:15;5.25;;;3.00;;
38312;SDS011;24114;52.260;6.714;2023-08-01T03:37:46;5.25;;;3.03;;
38312;SDS011;24114;52.260;6.714;2023-08-01T03:40:14;6.60;;;3.27;;
38312;SDS011;24114;52.260;6.714;2023-08-01T03:42:42;6.27;;;3.47;;
38312;SDS011;24114;52.260;6.714;2023-08-01T03:45:11;6.65;;;3.38;;
38312;SDS011;24114;52.260;6.714;2023-08-01T03:47:39;6.95;;;3.67;;
38312;SDS011;24114;52.260;6.714;2023-08-01T03:50:07;6.72;;;3.60;;
38312;SDS011;24114;52.260;6.714;2023-08-01T03:52:36;5.63;;;3.67;;
38312;SDS011;24114;52.260;6.714;2023-08-01T03:55:05;6.63;;;3.35;;
38312;SDS011;24114;52.260;6.714;2023-08-01T03:57:33;5.90;;;3.72;;
38312;SDS011;24114;52.260;6.714;2023-08-01T04:00:02;6.55;;;3.83;;
38312;SDS011;24114;52.260;6.714;2023-08-01T04:02:30;7.13;;;3.70;;
38312;SDS011;24114;52.260;6.714;2023-08-01T04:04:58;9.63;;;4.28;;
38312;SDS011;24114;52.260;6.714;2023-08-01T04:07:26;8.95;;;4.00;;
38312;SDS011;24114;52.260;6.714;2023-08-01T04:09:54;6.72;;;4.03;;
38312;SDS011;24114;52.260;6.714;2023-08-01T04:12:23;6.90;;;4.17;;
38312;SDS011;24114;52.260;6.714;2023-08-01T04:14:51;7.17;;;4.10;;
38312;SDS011;24114;52.260;6.714;2023-08-01T04:17:19;7.95;;;4.45;;
38312;SDS011;24114;52.260;6.714;2023-08-01T04:19:47;8.52;;;4.38;;
38312;SDS011;24114;52.260;6.714;2023-08-01T04:22:15;7.78;;;4.25;;
38312;SDS011;24114;52.260;6.714;2023-08-01T04:24:43;9.68;;;4.20;;
38312;SDS011;24114;52.260;6.714;2023-08-01T04:27:12;8.43;;;4.65;;
38312;SDS011;24114;52.260;6.714;2023-08-01T04:29:41;7.78;;;4.53;;
38312;SDS011;24114;52.260;6.714;2023-08-01T04:32:09;8.65;;;4.95;;
38312;SDS011;24114;52.260;6.714;2023-08-01T04:34:40;10.65;;;4.40;;
38312;SDS011;24114;52.260;6.714;2023-08-01T04:37:08;7.10;;;4.60;;
38312;SDS011;24114;52.260;6.714;2023-08-01T04:39:37;6.95;;;4.88;;
38312;SDS011;24114;52.260;6.714;2023-08-01T04:42:19;7.93;;;4.70;;
38312;SDS011;24114;52.260;6.714;2023-08-01T04:44:49;7.22;;;4.95;;
38312;SDS011;24114;52.260;6.714;2023-08-01T04:47:16;12.68;;;5.35;;
38312;SDS011;24114;52.260;6.714;2023-08-01T04:49:44;8.05;;;4.72;;
38312;SDS011;24114;52.260;6.714;2023-08-01T04:52:12;9.82;;;5.20;;
38312;SDS011;24114;52.260;6.714;2023-08-01T04:54:40;8.88;;;4.88;;
38312;SDS011;24114;52.260;6.714;2023-08-01T04:57:08;10.02;;;5.15;;
38312;SDS011;24114;52.260;6.714;2023-08-01T04:59:35;9.20;;;4.72;;
38312;SDS011;24114;52.260;6.714;2023-08-01T05:02:05;8.65;;;5.20;;
38312;SDS011;24114;52.260;6.714;2023-08-01T05:04:33;10.30;;;4.80;;
38312;SDS011;24114;52.260;6.714;2023-08-01T05:07:00;8.57;;;5.10;;
38312;SDS011;24114;52.260;6.714;2023-08-01T05:09:28;9.07;;;5.25;;
38312;SDS011;24114;52.260;6.714;2023-08-01T05:11:56;7.72;;;4.80;;
38312;SDS011;24114;52.260;6.714;2023-08-01T05:14:24;9.85;;;4.93;;
38312;SDS011;24114;52.260;6.714;2023-08-01T05:16:51;10.52;;;4.95;;
38312;SDS011;24114;52.260;6.714;2023-08-01T05:19:21;9.48;;;4.55;;
38312;SDS011;24114;52.260;6.714;2023-08-01T05:21:48;7.65;;;4.22;;
38312;SDS011;24114;52.260;6.714;2023-08-01T05:24:16;6.80;;;3.90;;
38312;SDS011;24114;52.260;6.714;2023-08-01T05:26:44;7.35;;;4.20;;
38312;SDS011;24114;52.260;6.714;2023-08-01T05:29:12;6.65;;;3.90;;
38312;SDS011;24114;52.260;6.714;2023-08-01T05:31:39;6.00;;;3.47;;
38312;SDS011;24114;52.260;6.714;2023-08-01T05:34:07;8.75;;;3.42;;
38312;SDS011;24114;52.260;6.714;2023-08-01T05:36:36;7.40;;;3.70;;
38312;SDS011;24114;52.260;6.714;2023-08-01T05:39:04;4.85;;;3.33;;
38312;SDS011;24114;52.260;6.714;2023-08-01T05:41:32;6.10;;;3.80;;
38312;SDS011;24114;52.260;6.714;2023-08-01T05:44:00;7.25;;;3.05;;
38312;SDS011;24114;52.260;6.714;2023-08-01T05:46:28;4.70;;;3.08;;
38312;SDS011;24114;52.260;6.714;2023-08-01T05:48:56;5.18;;;2.78;;
38312;SDS011;24114;52.260;6.714;2023-08-01T05:51:23;5.63;;;2.83;;
38312;SDS011;24114;52.260;6.714;2023-08-01T05:53:52;5.93;;;2.53;;
38312;SDS011;24114;52.260;6.714;2023-08-01T05:56:21;4.82;;;2.70;;
38312;SDS011;24114;52.260;6.714;2023-08-01T05:58:49;4.43;;;2.58;;
38312;SDS011;24114;52.260;6.714;2023-08-01T06:01:17;5.05;;;2.20;;
38312;SDS011;24114;52.260;6.714;2023-08-01T06:03:46;4.07;;;2.67;;
38312;SDS011;24114;52.260;6.714;2023-08-01T06:06:14;5.70;;;2.55;;
38312;SDS011;24114;52.260;6.714;2023-08-01T06:08:42;4.80;;;2.42;;
38312;SDS011;24114;52.260;6.714;2023-08-01T06:11:11;5.63;;;2.57;;
38312;SDS011;24114;52.260;6.714;2023-08-01T06:13:39;4.70;;;2.42;;
38312;SDS011;24114;52.260;6.714;2023-08-01T06:16:07;5.88;;;2.50;;
38312;SDS011;24114;52.260;6.714;2023-08-01T06:18:35;4.80;;;2.40;;
38312;SDS011;24114;52.260;6.714;2023-08-01T06:21:03;8.00;;;2.58;;
38312;SDS011;24114;52.260;6.714;2023-08-01T06:23:31;4.55;;;2.38;;
38312;SDS011;24114;52.260;6.714;2023-08-01T06:25:59;4.77;;;2.87;;
38312;SDS011;24114;52.260;6.714;2023-08-01T06:28:30;6.55;;;3.30;;
38312;SDS011;24114;52.260;6.714;2023-08-01T06:31:00;6.15;;;2.88;;
38312;SDS011;24114;52.260;6.714;2023-08-01T06:33:29;5.35;;;2.92;;
38312;SDS011;24114;52.260;6.714;2023-08-01T06:36:01;5.80;;;2.78;;
38312;SDS011;24114;52.260;6.714;2023-08-01T06:38:32;6.30;;;2.75;;
38312;SDS011;24114;52.260;6.714;2023-08-01T06:41:11;5.68;;;2.72;;
38312;SDS011;24114;52.260;6.714;2023-08-01T06:43:48;6.03;;;3.30;;
38312;SDS011;24114;52.260;6.714;2023-08-01T06:46:22;7.22;;;3.38;;
38312;SDS011;24114;52.260;6.714;2023-08-01T06:48:50;7.18;;;3.58;;
38312;SDS011;24114;52.260;6.714;2023-08-01T06:51:18;7.73;;;3.10;;
38312;SDS011;24114;52.260;6.714;2023-08-01T06:53:47;5.97;;;3.22;;
38312;SDS011;24114;52.260;6.714;2023-08-01T06:56:16;5.45;;;3.40;;
38312;SDS011;24114;52.260;6.714;2023-08-01T06:58:44;8.23;;;3.65;;
38312;SDS011;24114;52.260;6.714;2023-08-01T07:01:13;6.30;;;3.20;;
38312;SDS011;24114;52.260;6.714;2023-08-01T07:03:42;6.43;;;3.42;;
38312;SDS011;24114;52.260;6.714;2023-08-01T07:06:11;7.75;;;3.72;;
38312;SDS011;24114;52.260;6.714;2023-08-01T07:08:39;11.63;;;3.80;;
38312;SDS011;24114;52.260;6.714;2023-08-01T07:11:07;7.68;;;3.42;;
38312;SDS011;24114;52.260;6.714;2023-08-01T07:13:35;5.88;;;3.80;;
38312;SDS011;24114;52.260;6.714;2023-08-01T07:16:03;6.95;;;4.00;;
38312;SDS011;24114;52.260;6.714;2023-08-01T07:18:33;8.25;;;3.97;;
38312;SDS011;24114;52.260;6.714;2023-08-01T07:21:00;7.00;;;3.95;;
38312;SDS011;24114;52.260;6.714;2023-08-01T07:23:29;8.07;;;3.63;;
38312;SDS011;24114;52.260;6.714;2023-08-01T07:25:57;7.97;;;3.38;;
38312;SDS011;24114;52.260;6.714;2023-08-01T07:28:25;7.80;;;3.40;;
38312;SDS011;24114;52.260;6.714;2023-08-01T07:31:03;8.13;;;4.00;;
38312;SDS011;24114;52.260;6.714;2023-08-01T07:33:34;7.93;;;3.40;;
38312;SDS011;24114;52.260;6.714;2023-08-01T07:36:02;7.68;;;3.60;;
38312;SDS011;24114;52.260;6.714;2023-08-01T07:38:31;6.22;;;3.05;;
38312;SDS011;24114;52.260;6.714;2023-08-01T07:41:08;7.32;;;3.30;;
38312;SDS011;24114;52.260;6.714;2023-08-01T07:43:37;7.70;;;2.97;;
38312;SDS011;24114;52.260;6.714;2023-08-01T07:46:11;6.55;;;2.80;;
38312;SDS011;24114;52.260;6.714;2023-08-01T07:48:40;6.20;;;2.88;;
38312;SDS011;24114;52.260;6.714;2023-08-01T07:51:30;6.73;;;2.40;;
38312;SDS011;24114;52.260;6.714;2023-08-01T07:54:00;5.85;;;2.67;;
38312;SDS011;24114;52.260;6.714;2023-08-01T07:56:31;4.83;;;2.20;;
38312;SDS011;24114;52.260;6.714;2023-08-01T07:59:17;4.33;;;2.20;;
38312;SDS011;24114;52.260;6.714;2023-08-01T08:01:45;6.30;;;2.17;;
38312;SDS011;24114;52.260;6.714;2023-08-01T08:04:15;8.73;;;2.42;;
38312;SDS011;24114;52.260;6.714;2023-08-01T08:06:45;6.95;;;2.90;;
38312;SDS011;24114;52.260;6.714;2023-08-01T08:09:13;4.93;;;2.13;;
38312;SDS011;24114;52.260;6.714;2023-08-01T08:11:46;6.32;;;2.17;;
38312;SDS011;24114;52.260;6.714;2023-08-01T08:14:26;4.60;;;1.77;;
38312;SDS011;24114;52.260;6.714;2023-08-01T08:17:00;5.28;;;1.50;;
38312;SDS011;24114;52.260;6.714;2023-08-01T08:19:30;6.70;;;1.80;;
38312;SDS011;24114;52.260;6.714;2023-08-01T08:21:58;7.80;;;2.13;;
38312;SDS011;24114;52.260;6.714;2023-08-01T08:24:29;4.53;;;1.90;;
38312;SDS011;24114;52.260;6.714;2023-08-01T08:27:06;4.53;;;1.60;;
38312;SDS011;24114;52.260;6.714;2023-08-01T08:30:11;5.28;;;1.90;;
38312;SDS011;24114;52.260;6.714;2023-08-01T08:32:42;6.83;;;1.67;;
38312;SDS011;24114;52.260;6.714;2023-08-01T08:35:19;3.25;;;1.55;;
38312;SDS011;24114;52.260;6.714;2023-08-01T08:37:47;6.43;;;1.98;;
38312;SDS011;24114;52.260;6.714;2023-08-01T08:40:18;4.55;;;1.35;;
38312;SDS011;24114;52.260;6.714;2023-08-01T08:42:52;4.05;;;1.38;;
38312;SDS011;24114;52.260;6.714;2023-08-01T08:45:42;4.13;;;1.35;;
38312;SDS011;24114;52.260;6.714;2023-08-01T08:48:19;4.57;;;1.67;;
38312;SDS011;24114;52.260;6.714;2023-08-01T08:51:18;3.92;;;1.50;;
38312;SDS011;24114;52.260;6.714;2023-08-01T08:53:48;3.38;;;1.08;;
38312;SDS011;24114;52.260;6.714;2023-08-01T08:56:31;2.83;;;1.00;;
38312;SDS011;24114;52.260;6.714;2023-08-01T08:59:27;3.72;;;0.90;;
38312;SDS011;24114;52.260;6.714;2023-08-01T09:02:02;5.80;;;1.25;;
38312;SDS011;24114;52.260;6.714;2023-08-01T09:04:53;5.25;;;1.08;;
38312;SDS011;24114;52.260;6.714;2023-08-01T09:07:38;3.95;;;1.10;;
38312;SDS011;24114;52.260;6.714;2023-08-01T09:10:11;4.80;;;1.23;;
38312;SDS011;24114;52.260;6.714;2023-08-01T09:12:43;3.30;;;1.30;;
38312;SDS011;24114;52.260;6.714;2023-08-01T09:15:11;5.70;;;1.67;;
38312;SDS011;24114;52.260;6.714;2023-08-01T09:17:47;5.50;;;1.37;;
38312;SDS011;24114;52.260;6.714;2023-08-01T09:20:16;4.45;;;1.33;;
38312;SDS011;24114;52.260;6.714;2023-08-01T09:22:46;5.25;;;2.05;;
38312;SDS011;24114;52.260;6.714;2023-08-01T09:25:14;4.23;;;1.53;;
38312;SDS011;24114;52.260;6.714;2023-08-01T09:27:42;3.50;;;1.60;;
38312;SDS011;24114;52.260;6.714;2023-08-01T09:30:10;4.22;;;1.55;;
38312;SDS011;24114;52.260;6.714;2023-08-01T09:32:50;4.07;;;1.20;;
38312;SDS011;24114;52.260;6.714;2023-08-01T09:35:19;5.22;;;1.60;;
38312;SDS011;24114;52.260;6.714;2023-08-01T09:37:49;2.67;;;1.00;;
38312;SDS011;24114;52.260;6.714;2023-08-01T09:40:18;4.73;;;1.77;;
38312;SDS011;24114;52.260;6.714;2023-08-01T09:42:47;5.00;;;1.50;;
38312;SDS011;24114;52.260;6.714;2023-08-01T09:45:15;3.38;;;1.08;;
38312;SDS011;24114;52.260;6.714;2023-08-01T09:47:45;4.63;;;1.48;;
38312;SDS011;24114;52.260;6.714;2023-08-01T09:50:19;3.17;;;1.20;;
38312;SDS011;24114;52.260;6.714;2023-08-01T09:52:49;2.30;;;1.13;;
38312;SDS011;24114;52.260;6.714;2023-08-01T09:55:34;3.13;;;0.90;;
38312;SDS011;24114;52.260;6.714;2023-08-01T09:58:05;3.78;;;1.40;;
38312;SDS011;24114;52.260;6.714;2023-08-01T10:00:56;6.10;;;1.40;;
38312;SDS011;24114;52.260;6.714;2023-08-01T10:03:36;3.67;;;1.50;;
38312;SDS011;24114;52.260;6.714;2023-08-01T10:06:04;3.17;;;1.13;;
38312;SDS011;24114;52.260;6.714;2023-08-01T10:08:37;3.13;;;1.15;;
38312;SDS011;24114;52.260;6.714;2023-08-01T10:11:11;3.27;;;1.10;;
38312;SDS011;24114;52.260;6.714;2023-08-01T10:13:47;3.63;;;1.10;;
38312;SDS011;24114;52.260;6.714;2023-08-01T10:16:16;3.55;;;1.10;;
38312;SDS011;24114;52.260;6.714;2023-08-01T10:18:55;4.00;;;1.25;;
38312;SDS011;24114;52.260;6.714;2023-08-01T10:21:25;2.47;;;0.80;;
38312;SDS011;24114;52.260;6.714;2023-08-01T10:23:55;3.20;;;1.02;;
38312;SDS011;24114;52.260;6.714;2023-08-01T10:26:29;3.25;;;0.63;;
38312;SDS011;24114;52.260;6.714;2023-08-01T10:29:12;3.22;;;0.50;;
38312;SDS011;24114;52.260;6.714;2023-08-01T10:31:55;3.17;;;0.73;;
38312;SDS011;24114;52.260;6.714;2023-08-01T10:34:50;3.45;;;0.70;;
38312;SDS011;24114;52.260;6.714;2023-08-01T10:37:45;3.15;;;0.80;;
38312;SDS011;24114;52.260;6.714;2023-08-01T10:40:20;2.63;;;0.60;;
38312;SDS011;24114;52.260;6.714;2023-08-01T10:43:05;2.33;;;0.63;;
38312;SDS011;24114;52.260;6.714;2023-08-01T10:46:00;2.65;;;0.50;;
38312;SDS011;24114;52.260;6.714;2023-08-01T10:51:51;2.85;;;0.70;;
38312;SDS011;24114;52.260;6.714;2023-08-01T10:54:44;3.67;;;0.70;;
38312;SDS011;24114;52.260;6.714;2023-08-01T10:57:19;3.28;;;0.73;;
38312;SDS011;24114;52.260;6.714;2023-08-01T10:59:53;4.55;;;0.52;;
38312;SDS011;24114;52.260;6.714;2023-08-01T11:02:28;3.67;;;0.60;;
38312;SDS011;24114;52.260;6.714;2023-08-01T11:04:58;4.43;;;0.80;;
38312;SDS011;24114;52.260;6.714;2023-08-01T11:07:27;2.65;;;0.40;;
38312;SDS011;24114;52.260;6.714;2023-08-01T11:10:02;3.53;;;1.00;;
38312;SDS011;24114;52.260;6.714;2023-08-01T11:12:43;2.50;;;0.57;;
38312;SDS011;24114;52.260;6.714;2023-08-01T11:15:12;3.55;;;0.65;;
38312;SDS011;24114;52.260;6.714;2023-08-01T11:17:46;2.28;;;0.43;;
38312;SDS011;24114;52.260;6.714;2023-08-01T11:20:20;1.35;;;0.35;;
38312;SDS011;24114;52.260;6.714;2023-08-01T11:23:04;2.63;;;0.30;;
38312;SDS011;24114;52.260;6.714;2023-08-01T11:25:39;1.83;;;0.20;;
38312;SDS011;24114;52.260;6.714;2023-08-01T11:28:19;2.20;;;0.43;;
38312;SDS011;24114;52.260;6.714;2023-08-01T11:30:53;2.05;;;0.30;;
38312;SDS011;24114;52.260;6.714;2023-08-01T11:33:23;2.22;;;0.30;;
38312;SDS011;24114;52.260;6.714;2023-08-01T11:35:51;2.80;;;0.52;;
38312;SDS011;24114;52.260;6.714;2023-08-01T11:38:23;3.88;;;0.68;;
38312;SDS011;24114;52.260;6.714;2023-08-01T11:40:52;1.70;;;0.73;;
38312;SDS011;24114;52.260;6.714;2023-08-01T11:43:22;2.72;;;0.70;;
38312;SDS011;24114;52.260;6.714;2023-08-01T11:46:12;2.85;;;0.57;;
38312;SDS011;24114;52.260;6.714;2023-08-01T11:51:00;2.70;;;0.50;;
38312;SDS011;24114;52.260;6.714;2023-08-01T11:53:29;2.17;;;0.60;;
38312;SDS011;24114;52.260;6.714;2023-08-01T11:55:58;2.13;;;0.50;;
38312;SDS011;24114;52.260;6.714;2023-08-01T11:58:29;2.05;;;0.50;;
38312;SDS011;24114;52.260;6.714;2023-08-01T12:01:01;2.65;;;0.75;;
38312;SDS011;24114;52.260;6.714;2023-08-01T12:03:31;2.08;;;0.50;;
38312;SDS011;24114;52.260;6.714;2023-08-01T12:06:04;1.90;;;0.40;;
38312;SDS011;24114;52.260;6.714;2023-08-01T12:08:34;1.65;;;0.40;;
38312;SDS011;24114;52.260;6.714;2023-08-01T12:11:02;1.35;;;0.30;;
38312;SDS011;24114;52.260;6.714;2023-08-01T12:13:29;2.10;;;0.55;;
38312;SDS011;24114;52.260;6.714;2023-08-01T12:15:58;1.98;;;0.30;;
38312;SDS011;24114;52.260;6.714;2023-08-01T12:18:27;2.25;;;0.35;;
38312;SDS011;24114;52.260;6.714;2023-08-01T12:20:58;2.60;;;0.60;;
38312;SDS011;24114;52.260;6.714;2023-08-01T12:23:27;2.30;;;0.60;;
38312;SDS011;24114;52.260;6.714;2023-08-01T12:25:55;3.78;;;0.60;;
38312;SDS011;24114;52.260;6.714;2023-08-01T12:30:17;3.58;;;0.50;;
38312;SDS011;24114;52.260;6.714;2023-08-01T12:32:45;2.17;;;0.50;;
38312;SDS011;24114;52.260;6.714;2023-08-01T12:35:17;2.63;;;0.45;;
38312;SDS011;24114;52.260;6.714;2023-08-01T12:37:44;2.72;;;0.55;;
38312;SDS011;24114;52.260;6.714;2023-08-01T12:40:12;2.92;;;0.50;;
38312;SDS011;24114;52.260;6.714;2023-08-01T12:42:40;2.53;;;0.57;;
38312;SDS011;24114;52.260;6.714;2023-08-01T12:45:08;3.10;;;0.67;;
38312;SDS011;24114;52.260;6.714;2023-08-01T12:47:38;2.15;;;0.35;;
38312;SDS011;24114;52.260;6.714;2023-08-01T12:50:06;3.10;;;0.60;;
38312;SDS011;24114;52.260;6.714;2023-08-01T12:52:35;2.15;;;0.45;;
38312;SDS011;24114;52.260;6.714;2023-08-01T12:55:03;3.42;;;0.50;;
38312;SDS011;24114;52.260;6.714;2023-08-01T12:57:32;1.95;;;0.40;;
38312;SDS011;24114;52.260;6.714;2023-08-01T13:00:00;2.60;;;0.40;;
38312;SDS011;24114;52.260;6.714;2023-08-01T13:02:28;1.83;;;0.40;;
38312;SDS011;24114;52.260;6.714;2023-08-01T13:04:57;1.23;;;0.30;;
38312;SDS011;24114;52.260;6.714;2023-08-01T13:07:25;3.30;;;0.35;;
38312;SDS011;24114;52.260;6.714;2023-08-01T13:09:53;1.50;;;0.20;;
38312;SDS011;24114;52.260;6.714;2023-08-01T13:12:21;2.60;;;0.32;;
38312;SDS011;24114;52.260;6.714;2023-08-01T13:14:49;1.77;;;0.30;;
38312;SDS011;24114;52.260;6.714;2023-08-01T13:17:23;2.33;;;0.35;;
38312;SDS011;24114;52.260;6.714;2023-08-01T13:19:53;2.53;;;0.20;;
38312;SDS011;24114;52.260;6.714;2023-08-01T13:22:23;4.20;;;0.60;;
38312;SDS011;24114;52.260;6.714;2023-08-01T13:24:51;3.03;;;0.30;;
38312;SDS011;24114;52.260;6.714;2023-08-01T13:27:19;2.67;;;0.40;;
38312;SDS011;24114;52.260;6.714;2023-08-01T13:29:47;1.20;;;0.30;;
38312;SDS011;24114;52.260;6.714;2023-08-01T13:32:18;2.40;;;0.20;;
38312;SDS011;24114;52.260;6.714;2023-08-01T13:34:45;2.10;;;0.32;;
38312;SDS011;24114;52.260;6.714;2023-08-01T13:37:14;1.98;;;0.20;;
38312;SDS011;24114;52.260;6.714;2023-08-01T13:39:43;2.00;;;0.10;;
38312;SDS011;24114;52.260;6.714;2023-08-01T13:42:12;1.60;;;0.17;;
38312;SDS011;24114;52.260;6.714;2023-08-01T13:44:40;2.50;;;0.30;;
38312;SDS011;24114;52.260;6.714;2023-08-01T13:47:07;1.40;;;0.20;;
38312;SDS011;24114;52.260;6.714;2023-08-01T13:49:35;2.92;;;0.45;;
38312;SDS011;24114;52.260;6.714;2023-08-01T13:52:03;2.38;;;0.20;;
38312;SDS011;24114;52.260;6.714;2023-08-01T13:54:32;2.53;;;0.30;;
38312;SDS011;24114;52.260;6.714;2023-08-01T13:57:02;4.00;;;0.60;;
38312;SDS011;24114;52.260;6.714;2023-08-01T13:59:30;2.10;;;0.55;;
38312;SDS011;24114;52.260;6.714;2023-08-01T14:01:57;2.17;;;0.47;;
38312;SDS011;24114;52.260;6.714;2023-08-01T14:04:25;1.88;;;0.47;;
38312;SDS011;24114;52.260;6.714;2023-08-01T14:06:53;2.40;;;0.45;;
38312;SDS011;24114;52.260;6.714;2023-08-01T14:09:21;1.73;;;0.40;;
38312;SDS011;24114;52.260;6.714;2023-08-01T14:11:49;1.55;;;0.30;;
38312;SDS011;24114;52.260;6.714;2023-08-01T14:14:19;1.92;;;0.30;;
38312;SDS011;24114;52.260;6.714;2023-08-01T14:16:46;2.42;;;0.40;;
38312;SDS011;24114;52.260;6.714;2023-08-01T14:19:14;1.10;;;0.30;;
38312;SDS011;24114;52.260;6.714;2023-08-01T14:21:42;2.70;;;0.38;;
38312;SDS011;24114;52.260;6.714;2023-08-01T14:24:10;3.22;;;0.40;;
38312;SDS011;24114;52.260;6.714;2023-08-01T14:26:38;2.78;;;0.40;;
38312;SDS011;24114;52.260;6.714;2023-08-01T14:29:08;3.50;;;0.50;;
38312;SDS011;24114;52.260;6.714;2023-08-01T14:31:37;2.38;;;0.40;;
38312;SDS011;24114;52.260;6.714;2023-08-01T14:34:05;2.22;;;0.40;;
38312;SDS011;24114;52.260;6.714;2023-08-01T14:36:33;2.35;;;0.40;;
38312;SDS011;24114;52.260;6.714;2023-08-01T14:39:00;3.22;;;0.60;;
38312;SDS011;24114;52.260;6.714;2023-08-01T14:41:46;2.30;;;0.40;;
38312;SDS011;24114;52.260;6.714;2023-08-01T14:44:30;3.17;;;0.40;;
38312;SDS011;24114;52.260;6.714;2023-08-01T14:47:00;3.22;;;0.32;;
38312;SDS011;24114;52.260;6.714;2023-08-01T14:49:28;4.50;;;0.40;;
38312;SDS011;24114;52.260;6.714;2023-08-01T14:51:56;2.60;;;0.20;;
38312;SDS011;24114;52.260;6.714;2023-08-01T14:54:24;2.35;;;0.20;;
38312;SDS011;24114;52.260;6.714;2023-08-01T14:56:55;2.60;;;0.38;;
38312;SDS011;24114;52.260;6.714;2023-08-01T14:59:23;0.90;;;0.20;;
38312;SDS011;24114;52.260;6.714;2023-08-01T15:01:50;2.08;;;0.22;;
38312;SDS011;24114;52.260;6.714;2023-08-01T15:04:20;2.72;;;0.30;;
38312;SDS011;24114;52.260;6.714;2023-08-01T15:06:48;2.35;;;0.28;;
38312;SDS011;24114;52.260;6.714;2023-08-01T15:09:15;0.73;;;0.17;;
38312;SDS011;24114;52.260;6.714;2023-08-01T15:11:43;2.25;;;0.60;;
38312;SDS011;24114;52.260;6.714;2023-08-01T15:14:11;1.70;;;0.20;;
38312;SDS011;24114;52.260;6.714;2023-08-01T15:16:39;1.98;;;0.20;;
